createdAt,value
2022-09-09T00:01:15.179Z,100431.91
2022-09-09T00:03:52.283Z,100436.09
2022-09-09T00:06:31.000Z,100426.13
2022-09-09T00:09:03.242Z,100430.34
2022-09-09T00:11:41.236Z,100423.03
2022-09-09T00:14:46.418Z,100424.88
2022-09-09T00:17:31.584Z,100425.19
2022-09-09T00:20:03.382Z,100427.03
2022-09-09T00:22:35.316Z,100430.69
2022-09-09T00:25:12.041Z,100422.84
2022-09-09T00:27:47.602Z,100421.50
2022-09-09T00:30:23.454Z,100423.59
2022-09-09T00:32:55.100Z,100428.84
2022-09-09T00:35:35.074Z,100422.84
2022-09-09T00:38:11.615Z,100411.28
2022-09-09T00:40:46.332Z,100427.25
2022-09-09T00:43:31.097Z,100413.16
2022-09-09T00:46:15.744Z,100409.19
2022-09-09T00:49:04.070Z,100411.84
2022-09-09T00:51:51.145Z,100418.91
2022-09-09T00:54:28.859Z,100411.59
2022-09-09T00:57:05.526Z,100409.25
2022-09-09T00:59:51.158Z,100410.03
2022-09-09T01:02:29.696Z,100410.34
2022-09-09T01:05:06.567Z,100410.34
2022-09-09T01:07:33.360Z,100405.09
2022-09-09T01:10:04.823Z,100408.75
2022-09-09T01:12:43.114Z,100408.00
2022-09-09T01:15:22.596Z,100417.94
2022-09-09T01:18:10.295Z,100423.72
2022-09-09T01:21:06.706Z,100416.94
2022-09-09T01:24:01.823Z,100415.13
2022-09-09T01:26:36.546Z,100409.38
2022-09-09T01:29:14.268Z,100406.22
2022-09-09T01:31:53.013Z,100406.22
2022-09-09T01:34:22.042Z,100405.44
2022-09-09T01:37:06.674Z,100409.63
2022-09-09T01:39:35.894Z,100414.63
2022-09-09T01:42:08.807Z,100400.22
2022-09-09T01:44:36.724Z,100401.53
2022-09-09T01:47:04.387Z,100399.97
2022-09-09T01:49:31.893Z,100404.72
2022-09-09T01:51:58.753Z,100407.59
2022-09-09T01:54:34.353Z,100417.59
2022-09-09T01:57:23.971Z,100415.25
2022-09-09T02:00:07.814Z,100409.22
2022-09-09T02:03:05.912Z,100415.50
2022-09-09T02:06:06.441Z,100423.94
2022-09-09T02:08:51.393Z,100406.94
2022-09-09T02:11:20.411Z,100410.03
2022-09-09T02:14:04.269Z,100404.81
2022-09-09T02:16:38.829Z,100408.22
2022-09-09T02:19:18.049Z,100415.34
2022-09-09T02:22:00.855Z,100406.97
2022-09-09T02:24:30.846Z,100404.88
2022-09-09T02:27:10.836Z,100405.41
2022-09-09T02:29:43.275Z,100399.38
2022-09-09T02:32:15.997Z,100404.38
2022-09-09T02:34:49.893Z,100403.34
2022-09-09T02:37:21.024Z,100402.56
2022-09-09T02:39:51.867Z,100403.09
2022-09-09T02:42:20.964Z,100412.28
2022-09-09T02:44:48.040Z,100412.28
2022-09-09T02:47:29.544Z,100396.03
2022-09-09T02:50:23.511Z,100407.56
2022-09-09T02:53:08.529Z,100410.22
2022-09-09T02:55:46.653Z,100407.84
2022-09-09T02:58:17.896Z,100409.16
2022-09-09T03:00:52.092Z,100405.28
2022-09-09T03:03:21.207Z,100417.56
2022-09-09T03:05:50.345Z,100415.22
2022-09-09T03:08:17.074Z,100410.00
2022-09-09T03:10:44.669Z,100406.88
2022-09-09T03:13:16.127Z,100405.31
2022-09-09T03:15:43.259Z,100406.63
2022-09-09T03:18:14.810Z,100415.28
2022-09-09T03:20:43.020Z,100405.59
2022-09-09T03:23:15.523Z,100412.66
2022-09-09T03:25:50.191Z,100415.31
2022-09-09T03:28:21.566Z,100415.31
2022-09-09T03:30:49.352Z,100410.88
2022-09-09T03:33:17.169Z,100418.72
2022-09-09T03:35:49.759Z,100417.72
2022-09-09T03:38:18.641Z,100421.91
2022-09-09T03:40:56.057Z,100413.00
2022-09-09T03:43:24.091Z,100415.09
2022-09-09T03:45:53.207Z,100421.38
2022-09-09T03:48:20.544Z,100435.00
2022-09-09T03:50:48.606Z,100437.13
2022-09-09T03:53:16.728Z,100438.44
2022-09-09T03:55:53.575Z,100430.31
2022-09-09T03:58:19.997Z,100430.06
2022-09-09T04:00:55.224Z,100428.50
2022-09-09T04:03:27.235Z,100420.41
2022-09-09T04:05:56.189Z,100418.84
2022-09-09T04:08:26.307Z,100419.91
2022-09-09T04:10:54.499Z,100421.47
2022-09-09T04:13:21.031Z,100424.88
2022-09-09T04:15:56.565Z,100424.09
2022-09-09T04:18:24.530Z,100426.72
2022-09-09T04:20:52.468Z,100427.78
2022-09-09T04:23:21.907Z,100427.25
2022-09-09T04:25:53.466Z,100429.38
2022-09-09T04:28:22.378Z,100431.44
2022-09-09T04:30:49.951Z,100431.19
2022-09-09T04:33:18.276Z,100428.84
2022-09-09T04:35:47.960Z,100430.44
2022-09-09T04:38:16.511Z,100439.06
2022-09-09T04:40:47.471Z,100433.31
2022-09-09T04:43:15.585Z,100434.63
2022-09-09T04:45:44.858Z,100428.09
2022-09-09T04:48:11.350Z,100439.84
2022-09-09T04:50:37.843Z,100430.44
2022-09-09T04:53:06.099Z,100432.28
2022-09-09T04:55:35.948Z,100440.63
2022-09-09T04:58:06.836Z,100440.63
2022-09-09T05:00:34.773Z,100450.84
2022-09-09T05:03:06.872Z,100443.50
2022-09-09T05:05:37.358Z,100442.72
2022-09-09T05:08:06.501Z,100443.50
2022-09-09T05:10:34.375Z,100453.72
2022-09-09T05:13:00.869Z,100446.38
2022-09-09T05:15:30.073Z,100441.94
2022-09-09T05:18:01.519Z,100444.84
2022-09-09T05:20:30.503Z,100450.59
2022-09-09T05:22:57.633Z,100457.91
2022-09-09T05:25:27.577Z,100445.06
2022-09-09T05:27:55.357Z,100442.72
2022-09-09T05:30:24.140Z,100451.88
2022-09-09T05:32:51.580Z,100459.72
2022-09-09T05:35:20.099Z,100453.94
2022-09-09T05:37:47.016Z,100450.31
2022-09-09T05:40:14.046Z,100468.34
2022-09-09T05:42:41.413Z,100467.81
2022-09-09T05:45:09.628Z,100479.88
2022-09-09T05:47:38.170Z,100475.69
2022-09-09T05:50:07.222Z,100470.69
2022-09-09T05:52:33.958Z,100474.91
2022-09-09T05:55:00.681Z,100485.34
2022-09-09T05:57:27.113Z,100475.16
2022-09-09T05:59:54.577Z,100479.06
2022-09-09T06:02:21.095Z,100480.63
2022-09-09T06:04:47.750Z,100484.81
2022-09-09T06:07:15.465Z,100488.75
2022-09-09T06:09:42.359Z,100488.75
2022-09-09T06:12:09.877Z,100491.34
2022-09-09T06:14:37.801Z,100487.16
2022-09-09T06:17:04.599Z,100495.78
2022-09-09T06:19:31.763Z,100496.03
2022-09-09T06:21:59.651Z,100493.94
2022-09-09T06:24:28.023Z,100498.38
2022-09-09T06:26:54.943Z,100489.22
2022-09-09T06:29:26.404Z,100499.44
2022-09-09T06:31:53.413Z,100495.22
2022-09-09T06:34:22.574Z,100499.16
2022-09-09T06:36:53.026Z,100501.78
2022-09-09T06:39:19.416Z,100508.03
2022-09-09T06:41:46.483Z,100507.50
2022-09-09T06:44:35.789Z,100509.84
2022-09-09T06:47:04.366Z,100509.59
2022-09-09T06:49:31.509Z,100513.78
2022-09-09T06:51:58.127Z,100512.44
2022-09-09T06:54:26.267Z,100515.59
2022-09-09T06:56:53.635Z,100519.25
2022-09-09T06:59:23.479Z,100510.59
2022-09-09T07:01:56.005Z,100509.53
2022-09-09T07:04:23.095Z,100504.56
2022-09-09T07:06:49.603Z,100511.34
2022-09-09T07:09:21.347Z,100515.25
2022-09-09T07:11:53.714Z,100508.19
2022-09-09T07:14:22.877Z,100517.06
2022-09-09T07:16:59.970Z,100507.13
2022-09-09T07:19:28.120Z,100505.03
2022-09-09T07:21:55.795Z,100519.97
2022-09-09T07:24:24.661Z,100505.00
2022-09-09T07:26:52.981Z,100508.13
2022-09-09T07:29:20.984Z,100517.28
2022-09-09T07:31:49.353Z,100517.53
2022-09-09T07:34:20.527Z,100506.00
2022-09-09T07:36:47.656Z,100514.59
2022-09-09T07:39:15.363Z,100518.53
2022-09-09T07:41:48.951Z,100517.47
2022-09-09T07:44:22.366Z,100517.94
2022-09-09T07:46:51.911Z,100517.94
2022-09-09T07:49:29.702Z,100520.25
2022-09-09T07:52:00.058Z,100522.06
2022-09-09T07:54:27.126Z,100521.22
2022-09-09T07:56:53.851Z,100521.47
2022-09-09T07:59:23.052Z,100526.16
2022-09-09T08:01:56.152Z,100524.31
2022-09-09T08:04:27.033Z,100530.84
2022-09-09T08:06:58.314Z,100535.00
2022-09-09T08:09:29.540Z,100533.91
2022-09-09T08:12:13.949Z,100535.97
2022-09-09T08:14:41.068Z,100527.53
2022-09-09T08:17:07.490Z,100536.72
2022-09-09T08:19:36.677Z,100543.97
2022-09-09T08:22:08.595Z,100549.44
2022-09-09T08:24:37.023Z,100543.38
2022-09-09T08:27:03.551Z,100545.72
2022-09-09T08:29:30.211Z,100540.44
2022-09-09T08:32:00.571Z,100545.16
2022-09-09T08:34:29.033Z,100544.88
2022-09-09T08:36:57.186Z,100549.56
2022-09-09T08:39:30.780Z,100547.94
2022-09-09T08:42:14.586Z,100551.31
2022-09-09T08:45:07.070Z,100551.53
2022-09-09T08:47:40.677Z,100562.25
2022-09-09T08:50:30.336Z,100555.16
2022-09-09T08:53:25.967Z,100565.84
2022-09-09T08:55:59.665Z,100569.47
2022-09-09T08:58:41.420Z,100561.28
2022-09-09T09:01:41.233Z,100566.22
2022-09-09T09:04:39.171Z,100567.25
2022-09-09T09:07:35.002Z,100554.34
2022-09-09T09:10:41.853Z,100566.84
2022-09-09T09:13:16.823Z,100572.34
2022-09-09T09:15:47.197Z,100571.72
2022-09-09T09:18:14.966Z,100569.06
2022-09-09T09:21:07.542Z,100569.78
2022-09-09T09:24:02.884Z,100560.03
2022-09-09T09:26:36.202Z,100567.84
2022-09-09T09:29:13.713Z,100564.66
2022-09-09T09:31:44.899Z,100568.22
2022-09-09T09:34:13.038Z,100578.16
2022-09-09T09:36:52.997Z,100572.88
2022-09-09T09:42:20.413Z,100578.03
2022-09-09T09:44:50.999Z,100568.81
2022-09-09T09:47:21.998Z,100570.06
2022-09-09T09:50:19.927Z,100569.75
2022-09-09T09:52:56.718Z,100572.88
2022-09-09T09:55:25.031Z,100567.56
2022-09-09T09:57:52.284Z,100569.91
2022-09-09T10:00:23.922Z,100571.69
2022-09-09T10:03:02.819Z,100574.03
2022-09-09T10:05:36.880Z,100572.41
2022-09-09T10:08:10.094Z,100570.75
2022-09-09T10:10:59.588Z,100571.75
2022-09-09T10:13:44.248Z,100572.22
2022-09-09T10:16:40.610Z,100571.13
2022-09-09T10:19:13.951Z,100567.13
2022-09-09T10:21:49.150Z,100576.03
2022-09-09T10:24:53.246Z,100570.47
2022-09-09T10:27:42.259Z,100572.75
2022-09-09T10:30:25.725Z,100571.38
2022-09-09T10:33:16.965Z,100568.41
2022-09-09T10:36:03.053Z,100566.50
2022-09-09T10:38:39.639Z,100561.41
2022-09-09T10:41:14.387Z,100557.41
2022-09-09T10:44:11.237Z,100557.88
2022-09-09T10:47:08.192Z,100551.78
2022-09-09T10:50:07.106Z,100548.81
2022-09-09T10:52:51.579Z,100547.91
2022-09-09T10:55:19.395Z,100552.13
2022-09-09T10:57:53.081Z,100545.91
2022-09-09T11:00:22.229Z,100550.59
2022-09-09T11:03:08.343Z,100549.16
2022-09-09T11:06:05.068Z,100549.59
2022-09-09T11:08:34.419Z,100541.03
2022-09-09T11:11:19.979Z,100544.94
2022-09-09T11:13:52.551Z,100541.69
2022-09-09T11:17:01.507Z,100530.09
2022-09-09T11:19:42.243Z,100544.50
2022-09-09T11:22:19.549Z,100545.69
2022-09-09T11:24:53.710Z,100555.63
2022-09-09T11:27:22.990Z,100544.16
2022-09-09T11:30:37.681Z,100545.38
2022-09-09T11:33:34.286Z,100547.38
2022-09-09T11:36:35.658Z,100551.03
2022-09-09T11:39:31.214Z,100557.06
2022-09-09T11:42:12.929Z,100563.31
2022-09-09T11:44:39.538Z,100568.75
2022-09-09T11:47:30.380Z,100579.59
2022-09-09T11:50:20.057Z,100566.41
2022-09-09T11:52:49.269Z,100572.69
2022-09-09T11:55:30.537Z,100585.84
2022-09-09T11:58:05.788Z,100580.03
2022-09-09T12:00:47.945Z,100586.81
2022-09-09T12:03:39.391Z,100583.50
2022-09-09T12:06:20.978Z,100573.78
2022-09-09T12:08:52.130Z,100584.28
2022-09-09T12:11:29.391Z,100575.34
2022-09-09T12:13:58.535Z,100576.91
2022-09-09T12:16:39.292Z,100572.69
2022-09-09T12:19:15.443Z,100561.09
2022-09-09T12:22:19.466Z,100571.34
2022-09-09T12:25:31.719Z,100578.47
2022-09-09T12:28:05.515Z,100582.59
2022-09-09T12:30:42.282Z,100589.16
2022-09-09T12:33:14.173Z,100584.38
2022-09-09T12:35:44.390Z,100591.44
2022-09-09T12:38:20.704Z,100582.94
2022-09-09T12:40:59.348Z,100579.72
2022-09-09T12:43:28.572Z,100580.94
2022-09-09T12:46:13.970Z,100564.84
2022-09-09T12:48:45.399Z,100555.25
2022-09-09T12:51:26.018Z,100542.31
2022-09-09T12:53:53.010Z,100521.25
2022-09-09T12:56:21.778Z,100530.59
2022-09-09T12:58:52.531Z,100526.59
2022-09-09T13:01:25.678Z,100533.16
2022-09-09T13:03:53.488Z,100530.47
2022-09-09T13:06:28.798Z,100540.38
2022-09-09T13:09:00.970Z,100541.59
2022-09-09T13:11:32.879Z,100543.38
2022-09-09T13:14:00.244Z,100550.38
2022-09-09T13:16:32.526Z,100564.34
2022-09-09T13:19:02.595Z,100566.31
2022-09-09T13:21:35.100Z,100572.34
2022-09-09T13:24:04.240Z,100567.28
2022-09-09T13:26:31.034Z,100577.56
2022-09-09T13:29:18.849Z,100581.25
2022-09-09T13:31:45.944Z,100583.25
2022-09-09T13:34:30.409Z,100586.94
2022-09-09T13:37:00.117Z,100593.97
2022-09-09T13:39:26.526Z,100601.81
2022-09-09T13:41:54.025Z,100605.13
2022-09-09T13:44:25.130Z,100600.69
2022-09-09T13:47:06.864Z,100604.91
2022-09-09T13:49:35.996Z,100597.69
2022-09-09T13:52:10.385Z,100597.13
2022-09-09T13:54:36.776Z,100608.38
2022-09-09T13:57:03.481Z,100610.25
2022-09-09T13:59:54.036Z,100619.78
2022-09-09T14:02:17.841Z,100619.22
2022-09-09T14:04:44.777Z,100611.63
2022-09-09T14:07:18.595Z,100586.19
2022-09-09T14:09:46.316Z,100590.44
2022-09-09T14:12:13.287Z,100564.34
2022-09-09T14:14:39.775Z,100559.88
2022-09-09T14:17:08.009Z,100576.25
2022-09-09T14:19:34.679Z,100568.13
2022-09-09T14:22:02.051Z,100577.41
2022-09-09T14:24:28.795Z,100579.09
2022-09-09T14:26:55.647Z,100579.09
2022-09-09T14:29:22.065Z,100578.84
2022-09-09T14:31:48.464Z,100564.16
2022-09-09T14:34:15.171Z,100570.50
2022-09-09T14:36:42.354Z,100576.88
2022-09-09T14:39:09.020Z,100580.88
2022-09-09T14:41:35.449Z,100583.94
2022-09-09T14:44:01.990Z,100576.00
2022-09-09T14:46:28.451Z,100583.13
2022-09-09T14:51:28.662Z,100575.34
2022-09-09T14:53:58.032Z,100583.81
2022-09-09T14:56:28.155Z,100580.72
2022-09-09T14:58:56.359Z,100582.59
2022-09-09T15:01:23.960Z,100584.50
2022-09-09T15:03:55.980Z,100576.94
2022-09-09T15:06:24.044Z,100576.69
2022-09-09T15:08:53.243Z,100569.09
2022-09-09T15:11:21.340Z,100575.69
2022-09-09T15:13:48.235Z,100573.91
2022-09-09T15:16:17.186Z,100578.91
2022-09-09T15:18:45.798Z,100574.25
2022-09-09T15:21:17.796Z,100570.34
2022-09-09T15:23:44.551Z,100563.75
2022-09-09T15:26:11.579Z,100570.34
2022-09-09T15:28:39.522Z,100569.56
2022-09-09T15:31:15.268Z,100569.56
2022-09-09T15:33:42.211Z,100561.44
2022-09-09T15:36:26.985Z,100559.09
2022-09-09T15:38:53.495Z,100561.19
2022-09-09T15:41:21.935Z,100559.09
2022-09-09T15:43:51.090Z,100558.06
2022-09-09T15:46:17.537Z,100564.09
2022-09-09T15:48:47.307Z,100552.50
2022-09-09T15:51:40.114Z,100554.41
2022-09-09T15:54:02.497Z,100558.84
2022-09-09T15:56:33.628Z,100550.16
2022-09-09T15:59:01.077Z,100562.53
2022-09-09T16:01:28.108Z,100569.09
2022-09-09T16:03:54.907Z,100574.34
2022-09-09T16:06:23.957Z,100571.44
2022-09-09T16:08:53.275Z,100567.78
2022-09-09T16:11:32.169Z,100576.69
2022-09-09T16:13:59.580Z,100579.59
2022-09-09T16:16:29.234Z,100570.91
2022-09-09T16:18:58.648Z,100571.09
2022-09-09T16:21:30.620Z,100570.91
2022-09-09T16:24:00.461Z,100570.34
2022-09-09T16:26:28.554Z,100556.59
2022-09-09T16:28:55.287Z,100551.38
2022-09-09T16:31:24.509Z,100545.25
2022-09-09T16:33:51.828Z,100542.13
2022-09-09T16:36:22.254Z,100543.69
2022-09-09T16:38:52.509Z,100527.06
2022-09-09T16:41:19.811Z,100522.63
2022-09-09T16:43:46.412Z,100528.97
2022-09-09T16:46:20.345Z,100533.66
2022-09-09T16:48:48.461Z,100542.56
2022-09-09T16:51:24.296Z,100541.56
2022-09-09T16:53:52.014Z,100547.56
2022-09-09T16:56:21.854Z,100553.38
2022-09-09T16:58:52.579Z,100553.38
2022-09-09T17:01:19.393Z,100546.25
2022-09-09T17:03:45.886Z,100548.16
2022-09-09T17:06:14.393Z,100540.78
2022-09-09T17:08:42.394Z,100541.78
2022-09-09T17:11:19.987Z,100537.88
2022-09-09T17:13:48.017Z,100536.56
2022-09-09T17:16:17.122Z,100535.97
2022-09-09T17:18:43.684Z,100534.22
2022-09-09T17:21:17.814Z,100524.72
2022-09-09T17:23:44.168Z,100520.19
2022-09-09T17:26:13.449Z,100528.53
2022-09-09T17:28:41.798Z,100521.97
2022-09-09T17:31:10.592Z,100519.63
2022-09-09T17:33:42.701Z,100515.91
2022-09-09T17:36:16.035Z,100514.72
2022-09-09T17:38:43.574Z,100524.97
2022-09-09T17:41:25.069Z,100530.53
2022-09-09T17:43:52.528Z,100534.78
2022-09-09T17:46:29.779Z,100538.78
2022-09-09T17:49:02.363Z,100538.00
2022-09-09T17:51:31.073Z,100539.13
2022-09-09T17:54:22.094Z,100532.91
2022-09-09T17:56:48.933Z,100533.22
2022-09-09T17:59:17.024Z,100545.38
2022-09-09T18:01:45.896Z,100541.47
2022-09-09T18:04:15.058Z,100547.06
2022-09-09T18:06:44.228Z,100548.16
2022-09-09T18:09:13.642Z,100550.81
2022-09-09T18:11:45.120Z,100560.41
2022-09-09T18:14:16.248Z,100560.41
2022-09-09T18:16:42.777Z,100563.44
2022-09-09T18:19:13.640Z,100568.66
2022-09-09T18:21:41.639Z,100581.56
2022-09-09T18:24:10.500Z,100582.69
2022-09-09T18:26:38.175Z,100587.47
2022-09-09T18:29:08.195Z,100590.13
2022-09-09T18:31:37.641Z,100599.94
2022-09-09T18:34:06.343Z,100597.38
2022-09-09T18:36:46.702Z,100595.56
2022-09-09T18:39:15.601Z,100604.81
2022-09-09T18:41:44.980Z,100603.56
2022-09-09T18:44:21.256Z,100614.38
2022-09-09T18:46:48.636Z,100613.38
2022-09-09T18:49:15.844Z,100613.13
2022-09-09T18:51:44.873Z,100601.09
2022-09-09T18:54:20.394Z,100609.53
2022-09-09T18:56:47.498Z,100603.50
2022-09-09T18:59:19.505Z,100608.84
2022-09-09T19:01:50.560Z,100611.72
2022-09-09T19:04:18.796Z,100618.63
2022-09-09T19:06:48.534Z,100615.28
2022-09-09T19:09:17.938Z,100606.66
2022-09-09T19:11:45.623Z,100622.16
2022-09-09T19:14:14.092Z,100615.34
2022-09-09T19:16:41.239Z,100611.78
2022-09-09T19:19:20.693Z,100617.03
2022-09-09T19:21:47.244Z,100624.91
2022-09-09T19:24:22.699Z,100610.22
2022-09-09T19:26:52.685Z,100612.63
2022-09-09T19:29:22.384Z,100609.28
2022-09-09T19:32:29.385Z,100613.19
2022-09-09T19:34:37.336Z,100612.72
2022-09-09T19:37:04.873Z,100607.00
2022-09-09T19:39:34.319Z,100610.72
2022-09-09T19:42:01.831Z,100592.72
2022-09-09T19:44:28.598Z,100603.66
2022-09-09T19:46:55.540Z,100598.97
2022-09-09T19:49:22.109Z,100607.44
2022-09-09T19:51:48.564Z,100611.66
2022-09-09T19:54:15.053Z,100601.94
2022-09-09T19:56:42.945Z,100604.59
2022-09-09T19:59:11.720Z,100604.16
2022-09-09T20:01:41.490Z,100613.59
2022-09-09T20:04:08.847Z,100609.69
2022-09-09T20:06:38.825Z,100621.03
2022-09-09T20:09:06.958Z,100630.03
2022-09-09T20:11:34.456Z,100616.97
2022-09-09T20:14:01.202Z,100625.66
2022-09-09T20:16:30.270Z,100639.00
2022-09-09T20:18:59.446Z,100633.78
2022-09-09T20:21:31.975Z,100631.97
2022-09-09T20:24:04.327Z,100641.19
2022-09-09T20:26:33.443Z,100649.59
2022-09-09T20:29:00.866Z,100648.06
2022-09-09T20:31:29.977Z,100649.59
2022-09-09T20:33:57.812Z,100657.28
2022-09-09T20:36:27.194Z,100666.72
2022-09-09T20:38:57.858Z,100673.84
2022-09-09T20:41:27.715Z,100670.16
2022-09-09T20:43:55.309Z,100672.28
2022-09-09T20:46:27.899Z,100669.38
2022-09-09T20:49:02.644Z,100671.50
2022-09-09T20:51:32.902Z,100663.34
2022-09-09T20:54:05.496Z,100675.19
2022-09-09T20:56:34.188Z,100684.91
2022-09-09T20:59:01.499Z,100687.56
2022-09-09T21:01:28.303Z,100680.75
2022-09-09T21:03:55.493Z,100684.66
2022-09-09T21:06:22.725Z,100703.34
2022-09-09T21:08:49.810Z,100705.44
2022-09-09T21:11:17.591Z,100701.75
2022-09-09T21:13:44.795Z,100701.75
2022-09-09T21:16:15.149Z,100706.75
2022-09-09T21:18:44.393Z,100695.75
2022-09-09T21:21:11.380Z,100706.31
2022-09-09T21:23:37.957Z,100702.84
2022-09-09T21:26:05.048Z,100693.41
2022-09-09T21:28:31.635Z,100689.72
2022-09-09T21:30:58.397Z,100681.06
2022-09-09T21:33:28.166Z,100681.84
2022-09-09T21:36:06.196Z,100669.25
2022-09-09T21:38:33.494Z,100667.91
2022-09-09T21:41:09.167Z,100654.81
2022-09-09T21:43:35.658Z,100654.56
2022-09-09T21:46:07.623Z,100657.69
2022-09-09T21:48:35.227Z,100649.56
2022-09-09T21:51:07.028Z,100644.34
2022-09-09T21:53:34.347Z,100645.66
2022-09-09T21:56:10.188Z,100639.09
2022-09-09T21:58:37.469Z,100647.22
2022-09-09T22:01:12.681Z,100646.41
2022-09-09T22:03:39.314Z,100651.44
2022-09-09T22:06:07.099Z,100655.41
2022-09-09T22:08:33.598Z,100650.16
2022-09-09T22:11:10.370Z,100649.06
2022-09-09T22:13:38.416Z,100648.03
2022-09-09T22:16:07.482Z,100654.63
2022-09-09T22:18:34.688Z,100661.72
2022-09-09T22:21:07.469Z,100663.31
2022-09-09T22:23:34.151Z,100659.59
2022-09-09T22:26:00.559Z,100655.72
2022-09-09T22:28:27.045Z,100643.13
2022-09-09T22:30:53.596Z,100645.47
2022-09-09T22:33:20.818Z,100647.59
2022-09-09T22:35:47.446Z,100636.06
2022-09-09T22:38:14.058Z,100645.78
2022-09-09T22:40:41.531Z,100642.88
2022-09-09T22:43:19.805Z,100648.44
2022-09-09T22:45:46.503Z,100651.31
2022-09-09T22:48:14.750Z,100639.81
2022-09-09T22:50:42.498Z,100651.88
2022-09-09T22:53:13.330Z,100641.63
2022-09-09T22:55:40.068Z,100649.53
2022-09-09T22:58:06.719Z,100650.06
2022-09-09T23:00:33.184Z,100639.03
2022-09-09T23:02:59.642Z,100638.28
2022-09-09T23:05:27.525Z,100637.47
2022-09-09T23:07:58.339Z,100643.25
2022-09-09T23:10:25.061Z,100644.59
2022-09-09T23:12:51.778Z,100641.22
2022-09-09T23:15:18.651Z,100642.25
2022-09-09T23:17:45.067Z,100638.31
2022-09-09T23:20:11.897Z,100634.88
2022-09-09T23:22:40.404Z,100641.22
2022-09-09T23:25:07.842Z,100644.09
2022-09-09T23:27:37.279Z,100645.41
2022-09-09T23:30:07.251Z,100651.19
2022-09-09T23:32:33.853Z,100648.06
2022-09-09T23:35:00.320Z,100643.38
2022-09-09T23:37:26.788Z,100653.06
2022-09-09T23:39:54.324Z,100645.25
2022-09-09T23:42:20.752Z,100647.06
2022-09-09T23:44:47.263Z,100643.38
2022-09-09T23:47:13.840Z,100637.34
2022-09-09T23:49:40.250Z,100634.22
2022-09-09T23:52:07.060Z,100641.31
2022-09-09T23:54:34.804Z,100639.47
2022-09-09T23:57:02.959Z,100641.31
2022-09-09T23:59:31.023Z,100642.91
